Time;durP1;ratioP1;P1;durP2;ratioP2;P2;SDS_P1;SDS_P2;PMS_P1;PMS_P2;Temp;Humidity;BMP_temperature;BMP_pressure;BME280_temperature;BME280_humidity;BME280_pressure;Samples;Min_cycle;Max_cycle;Signal;HPM_P1;HPM_P2
2021/12/18 00:02:19;;;;;;;0.73;0.73;;;20.10;43.30;;;24.05;28.66;103514.88;5057011;28;20489;-85
2021/12/18 00:04:45;;;;;;;0.68;0.68;;;20.10;43.20;;;24.04;28.61;103510.47;5023611;28;20148;-85
2021/12/18 00:07:12;;;;;;;0.80;0.70;;;20.20;43.30;;;24.05;28.73;103501.50;5038503;28;20079;-85
2021/12/18 00:09:40;;;;;;;0.90;0.88;;;20.10;43.30;;;24.05;28.69;103499.69;5056885;28;20048;-85
2021/12/18 00:12:08;;;;;;;0.70;0.70;;;20.10;43.30;;;24.03;28.83;103498.00;5056876;28;20048;-85
2021/12/18 00:14:35;;;;;;;0.75;0.75;;;20.10;43.30;;;24.03;28.68;103496.19;5056238;28;20089;-86
2021/12/18 00:17:02;;;;;;;0.90;0.90;;;20.10;43.30;;;24.04;28.67;103489.09;5039691;28;20147;-86
2021/12/18 00:19:28;;;;;;;0.80;0.80;;;20.10;43.30;;;24.04;28.55;103494.44;5021881;28;20147;-85
2021/12/18 00:21:54;;;;;;;0.70;0.70;;;20.10;43.20;;;24.03;28.70;103485.50;5056405;28;20194;-85
2021/12/18 00:24:20;;;;;;;0.70;0.70;;;20.20;43.30;;;24.03;28.74;103485.50;5022342;28;20126;-85
2021/12/18 00:26:47;;;;;;;0.70;0.70;;;20.10;43.30;;;24.03;28.72;103485.50;5039679;28;20080;-85
2021/12/18 00:29:13;;;;;;;0.80;0.80;;;20.10;43.30;;;24.04;28.84;103483.75;5021092;28;20122;-85
2021/12/18 00:31:39;;;;;;;0.60;0.60;;;20.10;43.20;;;24.04;28.49;103487.28;5040413;28;20157;-85
2021/12/18 00:34:05;;;;;;;1.02;0.93;;;20.10;43.20;;;24.04;28.52;103497.97;5037356;28;20546;-86
2021/12/18 00:36:30;;;;;;;0.70;0.70;;;20.20;43.30;;;24.04;28.73;103492.63;5054631;28;20123;-86
2021/12/18 00:38:56;;;;;;;0.90;0.85;;;20.10;43.20;;;24.00;28.79;103485.63;5055671;28;20538;-85
2021/12/18 00:44:03;;;;;;;0.80;0.80;;;20.10;43.30;;;24.00;28.59;103503.47;5057583;28;20060;-85
2021/12/18 00:46:43;;;;;;;0.85;0.82;;;20.10;43.30;;;23.99;28.62;103505.25;5040843;28;20052;-86
2021/12/18 00:49:13;;;;;;;1.33;1.00;;;20.20;43.40;;;24.00;28.57;103501.66;5037295;28;20368;-85
2021/12/18 00:51:39;;;;;;;1.00;0.90;;;20.10;43.30;;;24.04;28.63;103499.78;5052983;28;20053;-85
2021/12/18 00:54:05;;;;;;;0.80;0.80;;;20.10;43.30;;;24.04;28.56;103499.78;5020760;28;20056;-85
2021/12/18 00:56:31;;;;;;;0.65;0.65;;;20.10;43.30;;;24.03;28.65;103495.34;5056440;28;20603;-86
2021/12/18 00:58:57;;;;;;;1.13;0.80;;;20.10;43.30;;;24.04;28.75;103500.63;5022604;28;20048;-85
2021/12/18 01:01:26;;;;;;;0.60;0.60;;;20.10;43.30;;;24.04;28.79;103494.44;5054177;28;20407;-85
2021/12/18 01:03:54;;;;;;;0.80;0.80;;;20.10;43.30;;;24.04;28.56;103497.97;5039381;28;20127;-85
2021/12/18 01:06:22;;;;;;;0.70;0.70;;;20.10;43.30;;;24.01;28.67;103478.50;5022488;28;20056;-85
2021/12/18 01:08:52;;;;;;;0.82;0.73;;;20.10;43.30;;;24.05;28.75;103497.03;5056255;28;20397;-85
2021/12/18 01:16:39;;;;;;;0.70;0.70;;;20.10;43.30;;;24.03;28.53;103492.66;5058347;28;20053;-85
2021/12/18 01:24:35;;;;;;;0.70;0.70;;;20.10;43.30;;;24.05;28.73;103498.81;5040726;28;20090;-86
2021/12/18 01:27:01;;;;;;;1.55;0.80;;;20.10;43.30;;;24.00;28.76;103485.63;5038952;28;20062;-85
2021/12/18 01:29:27;;;;;;;0.60;0.60;;;20.10;43.30;;;24.04;28.67;103491.75;5036967;28;20424;-85
2021/12/18 01:31:53;;;;;;;0.85;0.85;;;20.10;43.30;;;24.05;28.55;103504.16;5022564;28;20461;-85
2021/12/18 01:34:18;;;;;;;0.98;0.88;;;20.10;43.30;;;24.03;28.91;103492.66;5052570;28;20103;-86
2021/12/18 01:36:44;;;;;;;0.60;0.60;;;20.10;43.30;;;24.03;28.61;103493.53;5022237;28;20044;-85
2021/12/18 01:39:10;;;;;;;1.20;0.73;;;20.10;43.30;;;24.04;28.68;103491.75;5054733;28;20059;-85
2021/12/18 01:41:58;;;;;;;0.60;0.60;;;20.10;43.30;;;24.02;28.85;103489.13;5053002;28;20052;-85
2021/12/18 01:52:33;;;;;;;1.08;0.70;;;20.10;43.30;;;24.04;28.62;103486.41;5040970;28;20047;-85
2021/12/18 01:55:00;;;;;;;0.93;0.80;;;20.10;43.30;;;23.99;28.62;103483.88;5038580;28;20052;-85
2021/12/18 01:57:26;;;;;;;1.85;1.00;;;20.10;43.30;;;24.04;28.75;103489.09;5053792;28;20051;-85
2021/12/18 01:59:52;;;;;;;0.65;0.65;;;20.10;43.30;;;24.03;28.82;103479.31;5055046;28;20045;-85
2021/12/18 02:02:20;;;;;;;0.70;0.68;;;20.10;43.20;;;24.04;28.65;103479.25;5038327;28;20056;-86
2021/12/18 02:04:46;;;;;;;0.50;0.50;;;20.10;43.20;;;24.02;28.57;103480.22;5038722;28;20040;-86
2021/12/18 02:07:13;;;;;;;0.98;0.88;;;20.10;43.30;;;24.02;28.66;103473.09;5052364;28;20411;-85
2021/12/18 02:12:35;;;;;;;0.60;0.60;;;20.10;43.20;;;24.02;28.73;103477.53;5057711;28;20072;-85
2021/12/18 02:23:00;;;;;;;0.70;0.70;;;20.10;43.30;;;24.00;28.81;103476.72;5055554;28;20127;-85
2021/12/18 02:25:26;;;;;;;0.90;0.80;;;20.10;43.30;;;24.01;28.76;103473.16;5038000;28;20550;-85
2021/12/18 02:27:55;;;;;;;0.52;0.52;;;20.10;43.30;;;23.99;28.69;103470.53;5037587;28;20091;-85
2021/12/18 02:30:22;;;;;;;1.13;0.70;;;20.10;43.30;;;23.97;28.79;103467.03;5037331;28;20052;-85
2021/12/18 02:32:52;;;;;;;0.60;0.60;;;20.10;43.30;;;24.01;28.68;103481.16;5038205;28;20052;-85
2021/12/18 02:35:48;;;;;;;0.60;0.60;;;20.10;43.30;;;23.98;28.83;103471.44;5038194;28;20071;-85
2021/12/18 02:38:24;;;;;;;0.80;0.80;;;20.10;43.30;;;23.99;28.67;103473.19;5051066;28;20049;-85
2021/12/18 02:41:11;;;;;;;0.70;0.70;;;20.10;43.30;;;24.02;28.58;103472.19;5054278;28;20101;-85
2021/12/18 02:43:39;;;;;;;0.70;0.70;;;20.10;43.30;;;24.03;28.77;103466.81;5039926;28;20437;-85
2021/12/18 02:46:08;;;;;;;0.65;0.65;;;20.10;43.30;;;23.98;28.78;103460.75;5036769;28;20187;-85
2021/12/18 02:48:41;;;;;;;0.68;0.68;;;20.10;43.30;;;23.98;28.75;103458.06;5055307;28;20143;-85
2021/12/18 02:51:09;;;;;;;0.60;0.60;;;20.10;43.30;;;23.98;28.70;103459.88;5039630;28;20051;-85
2021/12/18 02:53:37;;;;;;;0.70;0.70;;;20.10;43.30;;;23.99;28.67;103451.81;5040979;28;20500;-85
2021/12/18 02:56:06;;;;;;;0.68;0.60;;;20.10;43.30;;;24.00;28.83;103455.34;5041186;28;20059;-85
2021/12/18 02:58:37;;;;;;;0.60;0.60;;;20.10;43.30;;;24.00;28.53;103455.34;5054501;28;20135;-85
2021/12/18 03:01:08;;;;;;;0.50;0.50;;;20.10;43.30;;;24.01;28.77;103451.75;5057863;28;20501;-85
2021/12/18 03:03:38;;;;;;;0.82;0.82;;;20.10;43.30;;;24.00;28.75;103450.88;5041447;28;20127;-85
2021/12/18 03:06:22;;;;;;;0.70;0.70;;;20.10;43.30;;;24.01;28.71;103443.75;5041318;28;20049;-86
2021/12/18 03:25:27;;;;;;;0.57;0.57;;;20.10;43.30;;;23.98;28.80;103422.47;5057890;28;20052;-85
2021/12/18 03:27:51;;;;;;;0.60;0.60;;;20.10;43.30;;;24.02;28.86;103421.41;5059513;28;20094;-85
2021/12/18 03:30:19;;;;;;;0.93;0.80;;;20.10;43.30;;;24.02;28.75;103418.75;5040387;28;20048;-86
2021/12/18 03:32:45;;;;;;;0.88;0.70;;;20.10;43.30;;;23.98;28.80;103412.66;5057155;28;20945;-85
2021/12/18 03:35:12;;;;;;;0.60;0.60;;;20.10;43.30;;;24.01;28.66;103425.03;5041110;28;20048;-85
2021/12/18 03:37:38;;;;;;;0.73;0.73;;;20.10;43.30;;;23.99;28.68;103416.19;5037385;28;20042;-85
2021/12/18 03:40:08;;;;;;;0.63;0.63;;;20.10;43.30;;;24.01;28.65;103417.03;5057366;28;20105;-86
2021/12/18 03:42:34;;;;;;;0.65;0.60;;;20.10;43.30;;;24.00;28.76;103413.44;5057075;28;20049;-85
2021/12/18 03:45:00;;;;;;;0.70;0.70;;;20.10;43.30;;;24.01;28.69;103409.88;5057131;28;20053;-85
2021/12/18 03:47:26;;;;;;;0.88;0.88;;;20.10;43.30;;;24.03;28.71;103418.69;5022514;28;20048;-85
2021/12/18 03:49:52;;;;;;;0.85;0.73;;;20.10;43.30;;;23.99;28.75;103419.75;5055244;28;20178;-85
2021/12/18 03:52:18;;;;;;;0.50;0.50;;;20.10;43.30;;;24.01;28.77;103412.53;5056874;28;20451;-85
2021/12/18 03:54:44;;;;;;;0.70;0.60;;;20.10;43.30;;;23.99;28.69;103409.06;5024098;28;20044;-85
2021/12/18 03:57:11;;;;;;;0.60;0.60;;;20.10;43.40;;;24.00;28.66;103407.25;5056719;28;20060;-85
2021/12/18 03:59:38;;;;;;;0.68;0.68;;;20.10;43.40;;;23.99;28.86;103402.81;5038051;28;20486;-85
2021/12/18 04:02:04;;;;;;;0.60;0.60;;;20.10;43.30;;;23.99;28.81;103406.38;5040030;28;20044;-85
2021/12/18 04:04:29;;;;;;;0.55;0.55;;;20.10;43.40;;;23.97;28.70;103397.56;5056733;28;20051;-85
2021/12/18 04:06:55;;;;;;;1.00;0.90;;;20.10;43.30;;;23.99;28.62;103409.06;5038452;28;20131;-85
2021/12/18 04:09:21;;;;;;;1.00;0.90;;;20.10;43.30;;;23.98;28.75;103404.63;5073522;28;20048;-85
2021/12/18 04:11:47;;;;;;;0.70;0.70;;;20.10;43.30;;;23.97;28.86;103405.56;5040236;28;20056;-86
2021/12/18 04:14:14;;;;;;;0.60;0.60;;;20.10;43.30;;;24.01;28.50;103398.31;5056861;28;20044;-86
2021/12/18 04:16:40;;;;;;;0.73;0.73;;;20.10;43.30;;;23.98;28.68;103395.75;5056963;28;20060;-85
2021/12/18 04:19:06;;;;;;;0.68;0.65;;;20.10;43.30;;;24.04;28.74;103406.22;5039204;28;20696;-86
2021/12/18 04:21:34;;;;;;;0.63;0.63;;;20.10;43.20;;;24.02;28.73;103397.38;5056392;28;20049;-86
2021/12/18 04:24:02;;;;;;;0.68;0.68;;;20.10;43.20;;;24.03;28.81;103400.00;5056570;28;20149;-85
2021/12/18 04:26:28;;;;;;;0.68;0.60;;;20.10;43.20;;;24.08;28.75;103407.84;5056618;28;20481;-85
2021/12/18 04:28:53;;;;;;;0.50;0.50;;;20.10;43.20;;;24.07;28.83;103400.75;5056736;28;20059;-85
2021/12/18 04:31:19;;;;;;;0.60;0.60;;;20.20;43.20;;;24.10;28.43;103405.13;5056187;28;20144;-85
2021/12/18 04:33:45;;;;;;;0.80;0.70;;;20.20;43.20;;;24.12;28.61;103397.91;5056136;28;20052;-85
2021/12/18 04:36:11;;;;;;;0.85;0.60;;;20.20;43.10;;;24.14;28.54;103393.38;5056237;28;20049;-85
2021/12/18 04:38:36;;;;;;;0.63;0.63;;;20.20;43.10;;;24.14;28.64;103394.28;5056580;28;20055;-85
2021/12/18 04:41:04;;;;;;;0.50;0.50;;;20.20;43.10;;;24.09;28.49;103382.00;5053106;28;20405;-85
2021/12/18 04:43:30;;;;;;;0.50;0.50;;;20.30;43.10;;;24.15;28.61;103385.31;5056465;28;20496;-85
2021/12/18 04:45:56;;;;;;;0.50;0.50;;;20.30;43.10;;;24.17;28.54;103385.25;5039515;28;20048;-85
2021/12/18 04:48:21;;;;;;;0.70;0.60;;;20.30;43.00;;;24.15;28.66;103377.28;5039273;28;20438;-85
2021/12/18 04:50:47;;;;;;;0.70;0.70;;;20.30;43.00;;;24.16;28.40;103378.19;5039407;28;20131;-85
2021/12/18 04:53:13;;;;;;;0.50;0.50;;;20.30;43.00;;;24.18;28.54;103382.53;5039353;28;20056;-85
2021/12/18 04:55:39;;;;;;;0.75;0.70;;;20.30;43.00;;;24.20;28.63;103372.66;5038051;28;20053;-85
2021/12/18 04:58:05;;;;;;;0.73;0.55;;;20.30;43.00;;;24.19;28.45;103378.94;5023165;28;20066;-85
2021/12/18 05:00:38;;;;;;;0.55;0.55;;;20.30;43.00;;;24.21;28.54;103366.38;5022818;28;20131;-85
2021/12/18 05:03:07;;;;;;;0.70;0.70;;;20.30;42.90;;;24.19;28.40;103365.59;5057202;28;20052;-85
2021/12/18 05:05:34;;;;;;;0.68;0.68;;;20.30;42.90;;;24.22;28.43;103362.81;5037801;28;20051;-85
2021/12/18 05:08:02;;;;;;;0.60;0.50;;;20.30;42.90;;;24.20;28.48;103355.75;5056105;28;20041;-86
2021/12/18 05:10:28;;;;;;;0.52;0.52;;;20.30;42.90;;;24.24;28.38;103357.41;5037743;28;20074;-85
2021/12/18 05:12:54;;;;;;;0.50;0.50;;;20.30;42.90;;;24.24;28.44;103360.06;5039720;28;20632;-86
2021/12/18 05:15:19;;;;;;;0.50;0.50;;;20.30;42.90;;;24.26;28.91;103363.56;5039136;28;20142;-86
2021/12/18 05:17:45;;;;;;;0.50;0.50;;;20.30;42.90;;;24.26;28.23;103370.69;5055530;28;20106;-86
2021/12/18 05:20:11;;;;;;;0.55;0.55;;;20.30;42.90;;;24.25;28.42;103361.81;5039251;28;20052;-85
2021/12/18 05:22:38;;;;;;;0.60;0.50;;;20.30;42.90;;;24.28;28.45;103374.19;5022477;28;20486;-85
2021/12/18 05:25:05;;;;;;;0.50;0.50;;;20.30;42.90;;;24.23;28.46;103367.19;5055592;28;20044;-86
2021/12/18 05:27:33;;;;;;;0.68;0.68;;;20.40;43.00;;;24.28;28.47;103368.84;5055138;28;20080;-85
2021/12/18 05:29:58;;;;;;;0.60;0.60;;;20.30;42.90;;;24.26;28.64;103362.66;5054519;28;20475;-85
2021/12/18 05:32:24;;;;;;;0.50;0.50;;;20.30;42.90;;;24.28;28.42;103369.72;5022349;28;20090;-85
2021/12/18 05:34:50;;;;;;;0.73;0.68;;;20.40;42.90;;;24.30;28.34;103370.53;5055472;28;20091;-85
2021/12/18 05:37:31;;;;;;;0.47;0.47;;;20.40;42.90;;;24.28;28.39;103363.50;5022245;28;20041;-85
2021/12/18 05:39:57;;;;;;;0.60;0.50;;;20.40;42.90;;;24.32;28.39;103368.66;5039333;28;20044;-85
2021/12/18 05:42:23;;;;;;;1.02;0.60;;;20.40;42.90;;;24.30;28.38;103367.00;5038695;28;20048;-86
2021/12/18 05:44:49;;;;;;;0.55;0.52;;;20.40;42.90;;;24.31;28.34;103372.28;5021852;28;20440;-85
2021/12/18 05:47:15;;;;;;;0.60;0.60;;;20.40;42.90;;;24.31;28.25;103366.94;5038244;28;20048;-86
2021/12/18 05:49:41;;;;;;;0.43;0.43;;;20.40;42.80;;;24.30;28.28;103365.19;5052472;28;20049;-85
2021/12/18 05:52:08;;;;;;;0.55;0.55;;;20.40;42.80;;;24.30;28.37;103357.16;5055392;28;20458;-85
2021/12/18 05:54:35;;;;;;;0.70;0.70;;;20.30;42.80;;;24.30;28.46;103364.31;5054966;28;20452;-86
2021/12/18 05:57:06;;;;;;;0.50;0.50;;;20.40;42.80;;;24.29;28.31;103363.44;5055016;28;20052;-86
2021/12/18 05:59:34;;;;;;;0.60;0.60;;;20.40;42.80;;;24.28;28.29;103360.84;5021601;28;20135;-85
2021/12/18 06:02:00;;;;;;;0.60;0.60;;;20.40;42.80;;;24.31;28.33;103356.25;5053956;28;20057;-85
2021/12/18 06:04:26;;;;;;;0.60;0.60;;;20.40;42.90;;;24.30;28.21;103350.94;5036710;28;20057;-85
2021/12/18 06:06:52;;;;;;;0.55;0.55;;;20.40;42.90;;;24.31;28.29;103353.56;5055088;28;20061;-86
2021/12/18 06:09:18;;;;;;;0.60;0.60;;;20.40;42.90;;;24.32;28.45;103365.13;5053930;28;20048;-85
2021/12/18 06:11:44;;;;;;;0.82;0.82;;;20.40;42.90;;;24.33;28.38;103370.41;5053466;28;20056;-86
2021/12/18 06:14:10;;;;;;;0.90;0.75;;;20.40;42.90;;;24.36;28.35;103372.13;5054868;28;20102;-85
2021/12/18 06:16:35;;;;;;;0.60;0.60;;;20.40;42.90;;;24.32;28.36;103359.78;5021279;28;20145;-85
2021/12/18 06:19:01;;;;;;;0.50;0.50;;;20.40;42.90;;;24.32;28.44;103363.31;5036555;28;20132;-85
2021/12/18 06:21:28;;;;;;;0.52;0.50;;;20.40;42.80;;;24.30;28.40;103353.63;5037991;28;20457;-85
2021/12/18 06:23:55;;;;;;;0.75;0.52;;;20.40;42.80;;;24.31;28.21;103356.25;5054695;28;20556;-86
2021/12/18 06:26:23;;;;;;;0.77;0.77;;;20.40;42.90;;;24.32;28.17;103357.09;5054440;28;20068;-85
2021/12/18 06:28:49;;;;;;;0.50;0.50;;;20.40;42.90;;;24.30;28.28;103350.94;5020050;28;20061;-85
2021/12/18 06:31:15;;;;;;;1.25;0.77;;;20.40;42.90;;;24.34;28.32;103360.59;5036129;28;20067;-85
2021/12/18 06:33:41;;;;;;;0.55;0.55;;;20.40;42.90;;;24.32;28.29;103349.06;5037801;28;20045;-85
2021/12/18 06:36:07;;;;;;;0.60;0.60;;;20.40;42.90;;;24.34;28.42;103355.22;5037796;28;20052;-85
2021/12/18 06:38:32;;;;;;;0.60;0.60;;;20.40;42.90;;;24.32;28.32;103357.97;5038230;28;20048;-86
2021/12/18 06:40:58;;;;;;;0.60;0.60;;;20.40;42.90;;;24.32;28.30;103349.94;5054876;28;20049;-85
2021/12/18 06:43:24;;;;;;;0.40;0.40;;;20.30;42.80;;;24.29;28.40;103347.41;5037002;28;20045;-86
2021/12/18 06:45:50;;;;;;;0.50;0.50;;;20.40;42.90;;;24.32;28.42;103359.78;5037461;28;20484;-86
2021/12/18 06:48:15;;;;;;;0.50;0.50;;;20.40;42.90;;;24.33;28.34;103367.75;5037576;28;20041;-85
2021/12/18 06:50:41;;;;;;;0.60;0.60;;;20.40;42.90;;;24.28;28.32;103361.69;5037688;28;20498;-85
2021/12/18 06:53:07;;;;;;;0.40;0.40;;;20.40;42.90;;;24.33;28.24;103358.84;5054343;28;20048;-85
2021/12/18 06:55:34;;;;;;;0.40;0.40;;;20.40;42.90;;;24.32;28.49;103360.63;5053108;28;20049;-85
2021/12/18 06:58:00;;;;;;;0.50;0.50;;;20.40;42.90;;;24.33;28.53;103370.41;5053870;28;20044;-85
2021/12/18 07:00:28;;;;;;;0.50;0.50;;;20.30;42.90;;;24.31;28.39;103371.41;5054120;28;20131;-85
2021/12/18 07:02:54;;;;;;;0.50;0.50;;;20.30;42.90;;;24.29;28.35;103365.22;5054647;28;20094;-85
2021/12/18 07:05:20;;;;;;;0.50;0.50;;;20.40;42.90;;;24.30;28.20;103367.84;5021230;28;20044;-85
2021/12/18 07:07:47;;;;;;;0.50;0.50;;;20.40;42.90;;;24.30;28.29;103370.53;5053493;28;20456;-85
2021/12/18 07:10:14;;;;;;;0.82;0.60;;;20.40;42.90;;;24.29;28.41;103365.22;5037521;28;20107;-85
2021/12/18 07:12:41;;;;;;;0.80;0.80;;;20.40;42.90;;;24.32;28.45;103365.13;5019802;28;20045;-85
2021/12/18 07:15:09;;;;;;;0.65;0.65;;;20.40;42.90;;;24.29;28.46;103360.78;5037294;28;20052;-85
2021/12/18 07:17:36;;;;;;;0.60;0.60;;;20.40;42.90;;;24.30;28.46;103358.97;5052058;28;20045;-85
2021/12/18 07:20:05;;;;;;;0.55;0.55;;;20.40;42.90;;;24.31;28.30;103358.91;5020852;28;20052;-85
2021/12/18 07:22:31;;;;;;;0.50;0.50;;;20.30;42.90;;;24.32;28.30;103360.63;5037435;28;20060;-86
2021/12/18 07:24:57;;;;;;;0.50;0.50;;;20.30;42.90;;;24.30;28.18;103362.50;5037123;28;20088;-86
2021/12/18 07:27:24;;;;;;;0.40;0.40;;;20.30;42.90;;;24.29;28.28;103355.44;5036929;28;20052;-85
2021/12/18 07:29:49;;;;;;;0.50;0.50;;;20.30;42.90;;;24.30;28.37;103353.63;5037225;28;20045;-85
2021/12/18 07:32:15;;;;;;;0.57;0.50;;;20.40;42.90;;;24.31;28.38;103360.72;5037459;28;20045;-85
2021/12/18 07:34:41;;;;;;;0.52;0.50;;;20.30;42.90;;;24.31;28.25;103358.06;5054513;28;20159;-85
2021/12/18 07:37:08;;;;;;;0.43;0.43;;;20.30;42.90;;;24.30;28.24;103358.97;5040952;28;20052;-85
2021/12/18 07:39:33;;;;;;;0.60;0.60;;;20.30;42.90;;;24.30;28.26;103350.94;5023507;28;20070;-85
2021/12/18 07:41:59;;;;;;;0.47;0.47;;;20.30;42.90;;;24.27;28.26;103351.91;5040480;28;20048;-85
2021/12/18 07:44:25;;;;;;;0.50;0.50;;;20.30;42.90;;;24.29;28.36;103349.19;5038561;28;20102;-86
2021/12/18 07:46:51;;;;;;;0.43;0.43;;;20.30;42.90;;;24.30;28.39;103354.47;5040451;28;20056;-85
2021/12/18 07:49:16;;;;;;;0.50;0.50;;;20.30;42.90;;;24.31;28.37;103352.69;5055934;28;20053;-85
2021/12/18 07:51:42;;;;;;;0.50;0.50;;;20.40;43.00;;;24.29;27.98;103358.09;5039035;28;20056;-85
2021/12/18 07:54:09;;;;;;;0.40;0.40;;;20.30;42.90;;;24.32;28.28;103368.66;5056763;28;20047;-85
2021/12/18 07:56:35;;;;;;;0.60;0.60;;;20.40;43.00;;;24.30;28.20;103354.47;5040327;28;20063;-85
2021/12/18 07:59:02;;;;;;;0.60;0.60;;;20.30;42.90;;;24.29;28.20;103355.44;5040187;28;20047;-85
2021/12/18 08:01:27;;;;;;;0.68;0.68;;;20.40;42.90;;;24.30;28.33;103353.63;5056780;28;20070;-85
2021/12/18 08:03:53;;;;;;;0.50;0.50;;;20.40;42.90;;;24.31;28.30;103358.06;5023180;28;20056;-86
2021/12/18 08:06:20;;;;;;;0.50;0.50;;;20.40;42.90;;;24.29;28.28;103354.53;5056852;28;20186;-85
2021/12/18 08:08:47;;;;;;;0.60;0.60;;;20.40;42.90;;;24.32;28.51;103363.31;5039061;28;20041;-85
2021/12/18 08:11:14;;;;;;;0.40;0.40;;;20.40;42.90;;;24.31;28.23;103358.91;5040077;28;20048;-85
2021/12/18 08:13:39;;;;;;;0.50;0.50;;;20.40;42.90;;;24.32;28.20;103354.44;5040252;28;20545;-85
2021/12/18 08:16:05;;;;;;;0.52;0.52;;;20.40;42.90;;;24.32;28.34;103354.44;5038367;28;20056;-86
2021/12/18 08:18:31;;;;;;;0.43;0.43;;;20.40;42.90;;;24.33;28.29;103349.03;5040015;28;20183;-85
2021/12/18 08:20:57;;;;;;;0.50;0.50;;;20.40;42.90;;;24.32;28.47;103352.63;5023559;28;20502;-85
2021/12/18 08:23:23;;;;;;;0.40;0.40;;;20.40;42.90;;;24.31;28.39;103344.69;5056770;28;20071;-85
2021/12/18 08:25:49;;;;;;;0.57;0.57;;;20.40;42.90;;;24.34;28.32;103345.44;5039673;28;20519;-86
2021/12/18 08:28:16;;;;;;;0.50;0.50;;;20.40;42.90;;;24.31;28.35;103347.34;5056512;28;20040;-85
2021/12/18 08:30:42;;;;;;;0.40;0.40;;;20.40;42.90;;;24.32;28.34;103343.72;5055856;28;20497;-86
2021/12/18 08:33:09;;;;;;;0.50;0.50;;;20.40;42.90;;;24.33;28.48;103340.13;5054741;28;20057;-85
2021/12/18 08:35:36;;;;;;;0.50;0.50;;;20.40;42.90;;;24.30;28.34;103338.44;5053717;28;20057;-85
2021/12/18 08:38:04;;;;;;;0.60;0.60;;;20.40;42.90;;;24.32;28.35;103349.94;5056350;28;20049;-85
2021/12/18 08:40:31;;;;;;;0.40;0.40;;;20.40;42.80;;;24.32;28.48;103343.72;5055958;28;20045;-85
2021/12/18 08:42:57;;;;;;;0.45;0.45;;;20.40;42.90;;;24.31;28.23;103340.19;5039522;28;20059;-85
2021/12/18 08:45:23;;;;;;;0.45;0.45;;;20.40;42.90;;;24.32;28.33;103341.91;5038513;28;20048;-86
2021/12/18 08:47:49;;;;;;;0.50;0.50;;;20.40;42.90;;;24.33;28.29;103341.00;5056157;28;20508;-86
2021/12/18 08:50:17;;;;;;;0.75;0.55;;;20.40;42.90;;;24.35;28.24;103343.63;5039600;28;20048;-85
2021/12/18 08:52:48;;;;;;;0.50;0.50;;;20.40;42.90;;;24.34;28.37;103344.53;5022893;28;20379;-85
2021/12/18 08:55:17;;;;;;;0.55;0.55;;;20.40;42.90;;;24.33;28.39;103337.47;5056406;28;20145;-85
2021/12/18 08:57:43;;;;;;;0.50;0.50;;;20.40;42.80;;;24.34;28.18;103336.50;5039392;28;20135;-85
2021/12/18 09:00:13;;;;;;;0.60;0.60;;;20.40;42.90;;;24.31;28.31;103328.63;5022700;28;20045;-85
2021/12/18 09:02:40;;;;;;;0.60;0.60;;;20.40;42.80;;;24.36;28.20;103337.34;5054732;28;20520;-85
2021/12/18 09:05:08;;;;;;;0.77;0.57;;;20.40;42.80;;;24.35;28.31;103333.78;5056018;28;20055;-86
2021/12/18 09:07:34;;;;;;;0.50;0.50;;;20.40;43.40;;;24.34;28.37;103333.84;5055856;28;20106;-85
2021/12/18 09:10:00;;;;;;;0.40;0.40;;;20.40;42.80;;;24.37;28.19;103341.75;5039089;28;20052;-85
2021/12/18 09:12:26;;;;;;;0.60;0.60;;;20.40;42.90;;;24.34;28.34;103339.19;5039108;28;20474;-85
2021/12/18 09:14:53;;;;;;;0.40;0.40;;;20.40;42.80;;;24.33;28.23;103338.34;5021165;28;20044;-86
2021/12/18 09:17:19;;;;;;;0.38;0.38;;;20.40;42.80;;;24.36;28.36;103342.72;5022118;28;20497;-85
2021/12/18 09:19:45;;;;;;;0.50;0.50;;;20.40;42.80;;;24.37;28.37;103345.31;5055731;28;20536;-85
2021/12/18 09:22:12;;;;;;;0.47;0.47;;;20.40;42.80;;;24.35;28.33;103332.94;5022547;28;20080;-86
2021/12/18 09:24:39;;;;;;;0.50;0.50;;;20.40;42.80;;;24.36;28.23;103334.69;5053805;28;20144;-85
2021/12/18 09:27:06;;;;;;;0.60;0.60;;;20.40;42.80;;;24.35;28.21;103331.13;5038792;28;20044;-85
2021/12/18 09:29:33;;;;;;;0.52;0.50;;;20.40;42.80;;;24.33;28.22;103327.63;5055458;28;20052;-85
2021/12/18 09:31:59;;;;;;;0.40;0.40;;;20.40;42.80;;;24.34;28.34;103333.84;5022369;28;20053;-85
2021/12/18 09:34:27;;;;;;;0.68;0.60;;;20.40;42.80;;;24.32;28.12;103320.53;5035232;28;20136;-85
2021/12/18 09:36:53;;;;;;;0.50;0.50;;;20.40;42.80;;;24.37;28.36;103333.72;5039043;28;20044;-86
2021/12/18 09:39:19;;;;;;;0.47;0.47;;;20.40;42.80;;;24.35;28.22;103324.91;5054048;28;20930;-85
2021/12/18 09:41:49;;;;;;;0.47;0.47;;;20.40;42.80;;;24.33;28.19;103316.06;5055311;28;20048;-85
2021/12/18 09:44:24;;;;;;;0.77;0.50;;;20.40;42.80;;;24.37;28.21;103323.94;5053855;28;20045;-85
2021/12/18 09:46:50;;;;;;;0.40;0.40;;;20.40;42.80;;;24.38;28.22;103319.44;5038494;28;20045;-86
2021/12/18 09:49:16;;;;;;;0.43;0.43;;;20.40;42.70;;;24.36;28.22;103311.47;5037227;28;20072;-85
2021/12/18 09:51:43;;;;;;;0.68;0.65;;;20.40;42.80;;;24.36;28.32;103314.16;5051472;28;20056;-86
2021/12/18 09:54:08;;;;;;;0.40;0.40;;;20.40;42.70;;;24.34;28.22;103308.00;5022396;28;20040;-85
2021/12/18 09:56:34;;;;;;;0.60;0.52;;;20.40;42.80;;;24.37;28.26;103315.91;5054545;28;20486;-85
2021/12/18 09:59:00;;;;;;;0.50;0.50;;;20.40;42.70;;;24.39;28.28;103307.81;5055262;28;20079;-85
2021/12/18 10:01:26;;;;;;;0.50;0.50;;;20.40;42.70;;;24.38;28.25;103309.63;5038196;28;20394;-85
2021/12/18 10:03:58;;;;;;;0.40;0.40;;;20.40;42.70;;;24.38;28.13;103311.44;5038882;28;20475;-85
2021/12/18 10:06:41;;;;;;;0.50;0.50;;;20.40;42.70;;;24.38;28.21;103306.06;5055391;28;20040;-85
2021/12/18 10:09:29;;;;;;;0.50;0.50;;;20.40;42.80;;;24.37;28.27;103297.19;5021827;28;20147;-86
2021/12/18 10:12:03;;;;;;;0.40;0.40;;;20.40;42.70;;;24.39;28.21;103294.44;5054094;28;20044;-85
2021/12/18 10:14:58;;;;;;;0.60;0.60;;;20.40;42.70;;;24.35;28.38;103287.47;5048711;28;20418;-86
2021/12/18 10:17:26;;;;;;;0.50;0.50;;;20.40;42.70;;;24.40;28.23;103299.72;5037145;28;20412;-85
2021/12/18 10:20:15;;;;;;;0.60;0.60;;;20.40;42.70;;;24.35;28.36;103287.47;5021546;28;20398;-86
2021/12/18 10:22:49;;;;;;;0.55;0.55;;;20.40;42.70;;;24.33;28.18;103282.19;5054642;28;20088;-86
2021/12/18 10:25:22;;;;;;;0.47;0.47;;;20.40;42.70;;;24.35;28.32;103276.78;5036040;28;20048;-85
2021/12/18 10:28:01;;;;;;;0.55;0.55;;;20.40;42.70;;;24.37;28.30;103282.94;5037931;28;20482;-86
2021/12/18 10:30:26;;;;;;;0.50;0.50;;;20.40;42.70;;;24.36;28.31;103266.03;5038241;28;20123;-86
2021/12/18 10:33:11;;;;;;;0.57;0.57;;;20.40;42.70;;;24.35;28.24;103269.63;5036739;28;20060;-85
2021/12/18 10:35:50;;;;;;;0.60;0.60;;;20.40;42.70;;;24.41;28.16;103280.09;5054845;28;20139;-85
2021/12/18 10:38:51;;;;;;;0.40;0.40;;;20.40;42.70;;;24.37;28.15;103270.44;5054277;28;20052;-85
2021/12/18 10:41:34;;;;;;;0.40;0.40;;;20.40;42.70;;;24.39;28.39;103265.00;5038517;28;20093;-86
2021/12/18 10:44:08;;;;;;;0.40;0.40;;;20.40;42.70;;;24.40;28.34;103264.97;5037970;28;20435;-85
2021/12/18 10:46:41;;;;;;;0.45;0.45;;;20.50;42.70;;;24.39;28.21;103257.88;5035816;28;20057;-85
2021/12/18 10:49:19;;;;;;;0.40;0.40;;;20.50;42.70;;;24.38;28.10;103257.94;5053169;28;20056;-85
2021/12/18 10:51:48;;;;;;;0.50;0.50;;;20.40;42.70;;;24.40;28.25;103256.06;5036449;28;20057;-85
2021/12/18 10:54:19;;;;;;;0.50;0.50;;;20.40;42.70;;;24.37;28.31;103253.53;5036947;28;20055;-85
2021/12/18 10:56:52;;;;;;;0.50;0.50;;;20.40;42.70;;;24.36;28.31;103241.97;5037613;28;20045;-86
2021/12/18 10:59:36;;;;;;;0.50;0.50;;;20.40;42.70;;;24.37;28.14;103246.38;5053391;28;20478;-86
2021/12/18 11:02:11;;;;;;;0.50;0.50;;;20.40;42.70;;;24.38;28.28;103229.41;5054635;28;20044;-85
2021/12/18 11:04:40;;;;;;;0.40;0.40;;;20.40;42.70;;;24.39;28.18;103233.81;5050199;28;20041;-85
2021/12/18 11:07:31;;;;;;;0.40;0.40;;;20.40;42.70;;;24.37;28.44;103230.34;5037570;28;20048;-86